Terminal Aerodrome Forecast
Issued by NWS

Home | Current Version | Previous Version | Text Only | Print | Product List | Glossary On
Versions: 1 2 3 4 5 6 7 8 9 10 11 12 13 14 15 16 17
000
FTUS46 KLOX 201700
TAFBUR
TAF
KBUR 201726Z 2018/2118 VRB05KT P6SM SCT024 SCT100
     FM201900 18010KT P6SM SCT100
     FM210300 VRB03KT P6SM SCT100
     FM210600 VRB03KT P6SM OVC017
     FM211100 VRB03KT P6SM OVC022=

USA.gov is the U.S. government's official web portal to all federal, state and local government web resources and services.